createdAt,value
2019-03-23T00:01:32.185Z,80.70
2019-03-23T00:06:38.515Z,2.53
2019-03-23T00:11:44.585Z,1.77
2019-03-23T00:16:50.785Z,1.40
2019-03-23T00:21:57.114Z,1.97
2019-03-23T00:27:03.163Z,1.60
2019-03-23T00:32:09.475Z,5.23
2019-03-23T00:37:15.506Z,3.20
2019-03-23T00:42:22.034Z,7.03
2019-03-23T00:47:27.999Z,4.83
2019-03-23T00:52:34.250Z,0.57
2019-03-23T01:02:51.716Z,1.55
2019-03-23T01:07:57.771Z,1.33
2019-03-23T01:13:03.833Z,2.67
2019-03-23T01:18:10.096Z,3.10
2019-03-23T01:23:16.266Z,5.87
2019-03-23T01:28:22.353Z,5.17
2019-03-23T01:33:28.377Z,4.43
2019-03-23T01:38:34.427Z,8.00
2019-03-23T01:43:40.441Z,5.03
2019-03-23T01:48:46.560Z,4.03
2019-03-23T01:53:52.670Z,4.47
2019-03-23T01:58:58.650Z,6.67
2019-03-23T02:04:04.681Z,8.70
2019-03-23T02:09:10.626Z,6.80
2019-03-23T02:14:16.542Z,7.83
2019-03-23T02:19:22.604Z,11.60
2019-03-23T02:24:28.754Z,10.50
2019-03-23T02:29:34.955Z,7.70
2019-03-23T02:34:41.088Z,9.87
2019-03-23T02:39:47.188Z,12.10
2019-03-23T02:44:53.198Z,13.00
2019-03-23T02:49:59.201Z,9.07
2019-03-23T02:55:05.603Z,13.57
2019-03-23T03:00:12.802Z,8.73
2019-03-23T03:05:18.802Z,8.80
2019-03-23T03:10:39.996Z,11.03
2019-03-23T03:15:45.973Z,6.90
2019-03-23T03:20:52.020Z,15.98
2019-03-23T03:25:57.912Z,11.70
2019-03-23T03:31:04.228Z,11.50
2019-03-23T03:36:10.425Z,11.60
2019-03-23T03:41:16.535Z,13.37
2019-03-23T03:46:22.562Z,10.20
2019-03-23T03:51:28.605Z,9.80
2019-03-23T03:56:34.513Z,11.63
2019-03-23T04:01:40.595Z,10.47
2019-03-23T04:06:46.542Z,10.23
2019-03-23T04:11:52.693Z,7.67
2019-03-23T04:16:58.586Z,10.70
2019-03-23T04:22:04.811Z,9.03
2019-03-23T04:27:10.726Z,10.20
2019-03-23T04:32:16.813Z,9.93
2019-03-23T04:37:22.801Z,13.93
2019-03-23T04:42:28.836Z,16.43
2019-03-23T04:47:34.796Z,14.57
2019-03-23T04:52:40.951Z,14.30
2019-03-23T04:57:46.901Z,10.27
2019-03-23T05:02:53.020Z,17.77
2019-03-23T05:07:59.114Z,18.63
2019-03-23T05:13:05.122Z,16.50
2019-03-23T05:18:11.066Z,17.53
2019-03-23T05:23:17.208Z,13.50
2019-03-23T05:28:23.148Z,18.27
2019-03-23T05:33:29.191Z,18.20
2019-03-23T05:38:43.975Z,15.03
2019-03-23T05:43:43.106Z,14.70
2019-03-23T05:48:49.192Z,15.30
2019-03-23T05:53:55.320Z,18.43
2019-03-23T05:59:01.321Z,12.30
2019-03-23T06:04:07.505Z,12.03
2019-03-23T06:09:13.540Z,16.17
2019-03-23T06:14:19.581Z,15.90
2019-03-23T06:19:25.541Z,22.10
2019-03-23T06:24:31.587Z,15.37
2019-03-23T06:29:37.555Z,21.13
2019-03-23T06:34:43.622Z,21.85
2019-03-23T06:39:49.575Z,18.70
2019-03-23T06:44:55.655Z,17.37
2019-03-23T06:50:01.932Z,22.03
2019-03-23T06:55:08.674Z,16.97
2019-03-23T07:00:15.121Z,19.10
2019-03-23T07:05:21.181Z,17.33
2019-03-23T07:10:27.161Z,19.80
2019-03-23T07:15:33.126Z,15.40
2019-03-23T07:20:40.111Z,21.62
2019-03-23T07:25:46.327Z,21.73
2019-03-23T07:30:52.244Z,21.77
2019-03-23T07:35:58.326Z,19.15
2019-03-23T07:41:04.409Z,18.73
2019-03-23T07:46:10.575Z,17.67
2019-03-23T07:51:16.531Z,23.80
2019-03-23T07:56:23.666Z,17.47
2019-03-23T08:01:29.658Z,18.20
2019-03-23T08:06:35.826Z,15.13
2019-03-23T08:11:41.865Z,20.62
2019-03-23T08:16:48.065Z,17.50
2019-03-23T08:21:54.548Z,20.55
2019-03-23T08:27:00.837Z,27.97
2019-03-23T08:32:07.173Z,16.50
2019-03-23T08:37:13.221Z,20.77
2019-03-23T08:42:19.686Z,20.80
2019-03-23T08:47:25.910Z,13.97
2019-03-23T08:52:32.362Z,19.23
2019-03-23T08:57:41.503Z,17.07
2019-03-23T09:02:47.785Z,19.53
2019-03-23T09:07:54.207Z,18.90
2019-03-23T09:13:00.442Z,20.23
2019-03-23T09:18:06.790Z,13.30
2019-03-23T09:23:12.776Z,16.47
2019-03-23T09:28:18.912Z,16.37
2019-03-23T09:33:25.205Z,16.97
2019-03-23T09:38:31.381Z,22.43
2019-03-23T09:43:37.725Z,20.83
2019-03-23T09:48:43.831Z,22.63
2019-03-23T09:53:50.171Z,21.10
2019-03-23T09:58:56.242Z,18.97
2019-03-23T10:04:02.373Z,12.77
2019-03-23T10:09:09.345Z,16.53
2019-03-23T10:14:15.746Z,18.13
2019-03-23T10:19:23.278Z,19.93
2019-03-23T10:24:29.456Z,17.17
2019-03-23T10:29:35.871Z,16.37
2019-03-23T10:34:41.926Z,19.40
2019-03-23T10:39:47.871Z,18.90
2019-03-23T10:44:53.969Z,27.50
2019-03-23T10:50:00.002Z,19.07
2019-03-23T10:55:06.371Z,22.93
2019-03-23T11:00:15.985Z,29.37
2019-03-23T11:05:21.985Z,27.30
2019-03-23T11:10:28.011Z,30.70
2019-03-23T11:15:34.008Z,16.20
2019-03-23T11:20:40.998Z,31.90
2019-03-23T11:25:47.020Z,17.62
2019-03-23T11:30:54.048Z,20.43
2019-03-23T11:35:59.971Z,19.30
2019-03-23T11:41:06.386Z,18.50
2019-03-23T11:46:13.423Z,20.63
2019-03-23T11:51:19.438Z,25.00
2019-03-23T11:56:25.466Z,20.37
2019-03-23T12:01:31.687Z,23.43
2019-03-23T12:06:37.767Z,23.40
2019-03-23T12:11:44.016Z,24.13
2019-03-23T12:16:50.326Z,22.67
2019-03-23T12:21:56.882Z,22.48
2019-03-23T12:27:02.860Z,28.33
2019-03-23T12:32:08.917Z,31.10
2019-03-23T12:37:14.946Z,20.70
2019-03-23T12:42:21.221Z,27.27
2019-03-23T12:47:27.260Z,30.07
2019-03-23T12:52:33.581Z,29.90
2019-03-23T12:57:40.377Z,28.57
2019-03-23T13:02:46.380Z,27.37
2019-03-23T13:07:52.486Z,30.25
2019-03-23T13:12:58.746Z,20.53
2019-03-23T13:18:04.808Z,26.83
2019-03-23T13:23:12.614Z,29.30
2019-03-23T13:28:18.736Z,22.27
2019-03-23T13:33:24.825Z,29.77
2019-03-23T13:38:33.554Z,16.83
2019-03-23T13:43:39.898Z,28.07
2019-03-23T13:48:45.936Z,32.70
2019-03-23T13:53:52.278Z,30.70
2019-03-23T13:58:58.721Z,24.25
2019-03-23T14:04:04.846Z,20.97
2019-03-23T14:09:10.836Z,30.47
2019-03-23T14:14:16.840Z,23.57
2019-03-23T14:19:22.893Z,24.90
2019-03-23T14:24:29.025Z,25.27
2019-03-23T14:29:35.110Z,31.67
2019-03-23T14:34:41.389Z,21.30
2019-03-23T14:39:47.730Z,19.60
2019-03-23T14:44:53.801Z,25.50
2019-03-23T14:49:59.951Z,24.43
2019-03-23T14:55:06.497Z,26.87
2019-03-23T15:00:12.797Z,25.95
2019-03-23T15:05:19.065Z,19.07
2019-03-23T15:10:25.563Z,19.37
2019-03-23T15:15:31.628Z,18.50
2019-03-23T15:20:37.866Z,20.07
2019-03-23T15:25:43.826Z,17.83
2019-03-23T15:30:50.843Z,24.85
2019-03-23T15:35:56.952Z,16.50
2019-03-23T15:41:02.837Z,24.87
2019-03-23T15:46:09.057Z,19.50
2019-03-23T15:51:14.966Z,22.13
2019-03-23T15:56:23.985Z,16.17
2019-03-23T16:01:31.093Z,19.20
2019-03-23T16:06:38.115Z,24.10
2019-03-23T16:11:44.282Z,20.17
2019-03-23T16:16:50.399Z,18.67
2019-03-23T16:21:57.917Z,18.27
2019-03-23T16:27:03.971Z,13.97
2019-03-23T16:32:10.229Z,13.70
2019-03-23T16:37:16.303Z,12.77
2019-03-23T16:42:22.752Z,8.10
2019-03-23T16:47:31.281Z,9.90
2019-03-23T16:52:38.665Z,8.80
2019-03-23T16:57:44.822Z,5.87
2019-03-23T17:02:53.167Z,11.97
2019-03-23T17:07:59.370Z,9.90
2019-03-23T17:13:05.551Z,13.60
2019-03-23T17:18:11.407Z,13.77
2019-03-23T17:23:17.497Z,10.13
2019-03-23T17:28:23.422Z,9.17
2019-03-23T17:33:29.604Z,14.77
2019-03-23T17:38:35.483Z,12.87
2019-03-23T17:43:41.979Z,11.27
2019-03-23T17:48:48.156Z,16.00
2019-03-23T17:53:58.519Z,11.67
2019-03-23T17:59:02.157Z,11.63
2019-03-23T18:04:08.218Z,11.93
2019-03-23T18:09:14.616Z,8.80
2019-03-23T18:14:21.334Z,6.17
2019-03-23T18:19:27.776Z,10.90
2019-03-23T18:24:33.845Z,13.70
2019-03-23T18:29:40.768Z,13.73
2019-03-23T18:34:46.854Z,18.20
2019-03-23T18:39:53.087Z,20.20
2019-03-23T18:44:59.468Z,15.97
2019-03-23T18:50:06.456Z,14.20
2019-03-23T18:55:13.956Z,13.77
2019-03-23T19:00:30.608Z,14.40
2019-03-23T19:05:39.885Z,17.57
2019-03-23T19:10:46.125Z,17.55
2019-03-23T19:15:52.297Z,13.10
2019-03-23T19:20:58.575Z,10.10
2019-03-23T19:26:06.856Z,14.63
2019-03-23T19:31:13.096Z,15.77
2019-03-23T19:36:19.356Z,12.70
2019-03-23T19:41:25.546Z,14.07
2019-03-23T19:46:31.795Z,12.57
2019-03-23T19:51:37.839Z,16.67
2019-03-23T19:56:43.876Z,14.57
2019-03-23T20:01:49.976Z,12.43
2019-03-23T20:06:56.316Z,9.83
2019-03-23T20:12:02.539Z,9.97
2019-03-23T20:17:08.616Z,11.30
2019-03-23T20:22:14.899Z,11.77
2019-03-23T20:27:21.296Z,10.53
2019-03-23T20:32:27.316Z,14.97
2019-03-23T20:37:33.514Z,15.90
2019-03-23T20:42:39.656Z,18.67
2019-03-23T20:47:45.825Z,13.37
2019-03-23T20:52:52.275Z,13.63
2019-03-23T20:57:58.756Z,18.10
2019-03-23T21:03:04.776Z,13.30
2019-03-23T21:08:10.985Z,8.87
2019-03-23T21:13:17.110Z,11.93
2019-03-23T21:18:23.476Z,9.87
2019-03-23T21:23:29.655Z,13.80
2019-03-23T21:28:35.757Z,11.00
2019-03-23T21:33:41.816Z,10.80
2019-03-23T21:38:47.859Z,11.03
2019-03-23T21:43:56.976Z,14.40
2019-03-23T21:49:03.136Z,14.20
2019-03-23T21:54:09.407Z,11.90
2019-03-23T21:59:15.915Z,12.67
2019-03-23T22:04:22.176Z,12.07
2019-03-23T22:09:31.394Z,13.00
2019-03-23T22:14:41.701Z,14.37
2019-03-23T22:19:45.556Z,18.53
2019-03-23T22:24:51.956Z,13.83
2019-03-23T22:29:58.426Z,16.23
2019-03-23T22:35:05.161Z,14.17
2019-03-23T22:40:11.679Z,10.97
2019-03-23T22:45:17.918Z,12.50
2019-03-23T22:50:23.875Z,15.40
2019-03-23T22:55:30.017Z,17.87
2019-03-23T23:00:44.117Z,15.53
2019-03-23T23:05:50.276Z,14.23
2019-03-23T23:10:56.353Z,17.77
2019-03-23T23:16:02.957Z,18.50
2019-03-23T23:21:09.215Z,14.37
2019-03-23T23:26:15.337Z,11.70
2019-03-23T23:31:21.490Z,26.30
2019-03-23T23:36:27.945Z,87.93
2019-03-23T23:41:34.293Z,78.33
2019-03-23T23:46:40.938Z,3.03
2019-03-23T23:51:50.400Z,1.53
2019-03-23T23:56:54.997Z,1.98
